sensor_id;sensor_type;location;lat;lon;timestamp;P1;durP1;ratioP1;P2;durP2;ratioP2
47930;SDS011;33697;51.520;9.950;2022-09-21T00:01:34;6.10;;;4.55;;
47930;SDS011;33697;51.520;9.950;2022-09-21T00:04:01;6.88;;;4.70;;
47930;SDS011;33697;51.520;9.950;2022-09-21T00:06:28;7.28;;;5.38;;
47930;SDS011;33697;51.520;9.950;2022-09-21T00:08:54;8.20;;;5.18;;
47930;SDS011;33697;51.520;9.950;2022-09-21T00:11:22;8.13;;;5.13;;
47930;SDS011;33697;51.520;9.950;2022-09-21T00:13:53;6.75;;;4.57;;
47930;SDS011;33697;51.520;9.950;2022-09-21T00:16:20;8.80;;;5.57;;
47930;SDS011;33697;51.520;9.950;2022-09-21T00:18:47;5.57;;;4.90;;
47930;SDS011;33697;51.520;9.950;2022-09-21T00:21:13;4.72;;;4.18;;
47930;SDS011;33697;51.520;9.950;2022-09-21T00:23:41;7.57;;;5.05;;
47930;SDS011;33697;51.520;9.950;2022-09-21T00:26:09;9.13;;;3.90;;
47930;SDS011;33697;51.520;9.950;2022-09-21T00:28:36;6.82;;;4.70;;
47930;SDS011;33697;51.520;9.950;2022-09-21T00:31:03;7.40;;;4.90;;
47930;SDS011;33697;51.520;9.950;2022-09-21T00:33:30;9.85;;;5.03;;
47930;SDS011;33697;51.520;9.950;2022-09-21T00:36:00;6.90;;;4.90;;
47930;SDS011;33697;51.520;9.950;2022-09-21T00:40:53;5.38;;;4.47;;
47930;SDS011;33697;51.520;9.950;2022-09-21T00:43:19;6.95;;;5.05;;
47930;SDS011;33697;51.520;9.950;2022-09-21T00:45:45;7.53;;;5.22;;
47930;SDS011;33697;51.520;9.950;2022-09-21T00:48:13;7.78;;;4.60;;
47930;SDS011;33697;51.520;9.950;2022-09-21T00:50:41;7.13;;;5.28;;
47930;SDS011;33697;51.520;9.950;2022-09-21T00:53:09;12.52;;;5.72;;
47930;SDS011;33697;51.520;9.950;2022-09-21T00:55:38;6.38;;;4.95;;
47930;SDS011;33697;51.520;9.950;2022-09-21T00:58:07;8.40;;;4.85;;
47930;SDS011;33697;51.520;9.950;2022-09-21T01:00:35;5.43;;;4.28;;
47930;SDS011;33697;51.520;9.950;2022-09-21T01:03:02;7.97;;;5.28;;
47930;SDS011;33697;51.520;9.950;2022-09-21T01:05:29;6.13;;;5.47;;
47930;SDS011;33697;51.520;9.950;2022-09-21T01:07:56;6.68;;;5.65;;
47930;SDS011;33697;51.520;9.950;2022-09-21T01:10:25;6.88;;;4.88;;
47930;SDS011;33697;51.520;9.950;2022-09-21T01:13:08;9.95;;;5.35;;
47930;SDS011;33697;51.520;9.950;2022-09-21T01:15:42;8.93;;;5.60;;
47930;SDS011;33697;51.520;9.950;2022-09-21T01:26:09;11.35;;;5.85;;
47930;SDS011;33697;51.520;9.950;2022-09-21T01:31:23;10.27;;;5.35;;
47930;SDS011;33697;51.520;9.950;2022-09-21T01:33:51;7.80;;;5.88;;
47930;SDS011;33697;51.520;9.950;2022-09-21T01:36:21;7.93;;;7.13;;
47930;SDS011;33697;51.520;9.950;2022-09-21T01:38:51;8.10;;;5.88;;
47930;SDS011;33697;51.520;9.950;2022-09-21T01:41:18;6.15;;;4.93;;
47930;SDS011;33697;51.520;9.950;2022-09-21T01:43:47;7.60;;;5.70;;
47930;SDS011;33697;51.520;9.950;2022-09-21T01:46:16;6.97;;;5.03;;
47930;SDS011;33697;51.520;9.950;2022-09-21T01:48:45;7.50;;;5.18;;
47930;SDS011;33697;51.520;9.950;2022-09-21T01:51:12;11.32;;;6.53;;
47930;SDS011;33697;51.520;9.950;2022-09-21T01:53:42;10.55;;;5.75;;
47930;SDS011;33697;51.520;9.950;2022-09-21T01:56:12;6.05;;;4.85;;
47930;SDS011;33697;51.520;9.950;2022-09-21T02:01:07;6.25;;;4.93;;
47930;SDS011;33697;51.520;9.950;2022-09-21T02:03:36;8.30;;;5.55;;
47930;SDS011;33697;51.520;9.950;2022-09-21T02:06:03;6.95;;;5.45;;
47930;SDS011;33697;51.520;9.950;2022-09-21T02:08:30;6.25;;;5.68;;
47930;SDS011;33697;51.520;9.950;2022-09-21T02:10:58;8.02;;;5.95;;
47930;SDS011;33697;51.520;9.950;2022-09-21T02:13:25;12.70;;;5.93;;
47930;SDS011;33697;51.520;9.950;2022-09-21T02:16:00;7.07;;;4.30;;
47930;SDS011;33697;51.520;9.950;2022-09-21T02:18:33;5.93;;;4.95;;
47930;SDS011;33697;51.520;9.950;2022-09-21T02:21:02;6.53;;;5.88;;
47930;SDS011;33697;51.520;9.950;2022-09-21T02:23:35;8.80;;;6.45;;
47930;SDS011;33697;51.520;9.950;2022-09-21T02:26:12;6.13;;;4.82;;
47930;SDS011;33697;51.520;9.950;2022-09-21T02:28:48;6.22;;;4.70;;
47930;SDS011;33697;51.520;9.950;2022-09-21T02:31:25;9.82;;;5.20;;
47930;SDS011;33697;51.520;9.950;2022-09-21T02:34:02;13.55;;;6.07;;
47930;SDS011;33697;51.520;9.950;2022-09-21T02:36:36;9.40;;;4.25;;
47930;SDS011;33697;51.520;9.950;2022-09-21T02:39:15;8.15;;;4.90;;
47930;SDS011;33697;51.520;9.950;2022-09-21T02:41:49;5.32;;;4.10;;
47930;SDS011;33697;51.520;9.950;2022-09-21T02:44:21;7.78;;;5.28;;
47930;SDS011;33697;51.520;9.950;2022-09-21T02:46:53;6.45;;;5.60;;
47930;SDS011;33697;51.520;9.950;2022-09-21T02:49:23;6.38;;;4.82;;
47930;SDS011;33697;51.520;9.950;2022-09-21T02:54:18;11.00;;;4.85;;
47930;SDS011;33697;51.520;9.950;2022-09-21T02:56:46;7.55;;;4.43;;
47930;SDS011;33697;51.520;9.950;2022-09-21T02:59:13;8.38;;;4.65;;
47930;SDS011;33697;51.520;9.950;2022-09-21T03:01:39;7.22;;;4.60;;
47930;SDS011;33697;51.520;9.950;2022-09-21T03:04:06;15.23;;;4.40;;
47930;SDS011;33697;51.520;9.950;2022-09-21T03:06:32;13.65;;;5.05;;
47930;SDS011;33697;51.520;9.950;2022-09-21T03:08:59;11.07;;;4.80;;
47930;SDS011;33697;51.520;9.950;2022-09-21T03:11:25;12.38;;;4.68;;
47930;SDS011;33697;51.520;9.950;2022-09-21T03:13:51;15.65;;;5.25;;
47930;SDS011;33697;51.520;9.950;2022-09-21T03:16:18;7.43;;;4.93;;
47930;SDS011;33697;51.520;9.950;2022-09-21T03:18:44;11.60;;;4.53;;
47930;SDS011;33697;51.520;9.950;2022-09-21T03:21:11;5.43;;;4.70;;
47930;SDS011;33697;51.520;9.950;2022-09-21T03:23:37;8.65;;;4.25;;
47930;SDS011;33697;51.520;9.950;2022-09-21T03:26:05;5.63;;;4.00;;
47930;SDS011;33697;51.520;9.950;2022-09-21T03:28:31;11.50;;;4.10;;
47930;SDS011;33697;51.520;9.950;2022-09-21T03:30:57;14.40;;;5.18;;
47930;SDS011;33697;51.520;9.950;2022-09-21T03:33:23;14.38;;;4.10;;
47930;SDS011;33697;51.520;9.950;2022-09-21T03:35:53;17.73;;;4.50;;
47930;SDS011;33697;51.520;9.950;2022-09-21T03:38:19;11.80;;;4.03;;
47930;SDS011;33697;51.520;9.950;2022-09-21T03:40:47;6.97;;;4.10;;
47930;SDS011;33697;51.520;9.950;2022-09-21T03:43:14;15.05;;;4.60;;
47930;SDS011;33697;51.520;9.950;2022-09-21T03:45:47;18.90;;;4.80;;
47930;SDS011;33697;51.520;9.950;2022-09-21T03:48:13;26.02;;;4.75;;
47930;SDS011;33697;51.520;9.950;2022-09-21T03:50:40;20.13;;;4.97;;
47930;SDS011;33697;51.520;9.950;2022-09-21T03:53:06;27.58;;;4.47;;
47930;SDS011;33697;51.520;9.950;2022-09-21T03:55:33;16.77;;;3.83;;
47930;SDS011;33697;51.520;9.950;2022-09-21T03:58:00;14.35;;;3.95;;
47930;SDS011;33697;51.520;9.950;2022-09-21T04:00:27;19.77;;;4.22;;
47930;SDS011;33697;51.520;9.950;2022-09-21T04:02:53;13.75;;;4.18;;
47930;SDS011;33697;51.520;9.950;2022-09-21T04:05:20;13.43;;;5.10;;
47930;SDS011;33697;51.520;9.950;2022-09-21T04:07:46;13.60;;;4.55;;
47930;SDS011;33697;51.520;9.950;2022-09-21T04:10:14;21.60;;;4.68;;
47930;SDS011;33697;51.520;9.950;2022-09-21T04:12:40;6.13;;;4.78;;
47930;SDS011;33697;51.520;9.950;2022-09-21T04:15:11;24.40;;;5.15;;
47930;SDS011;33697;51.520;9.950;2022-09-21T04:17:39;17.38;;;3.92;;
47930;SDS011;33697;51.520;9.950;2022-09-21T04:20:05;10.40;;;4.40;;
47930;SDS011;33697;51.520;9.950;2022-09-21T04:22:32;12.85;;;3.75;;
47930;SDS011;33697;51.520;9.950;2022-09-21T04:24:58;19.75;;;5.05;;
47930;SDS011;33697;51.520;9.950;2022-09-21T04:27:26;9.50;;;4.35;;
47930;SDS011;33697;51.520;9.950;2022-09-21T04:29:52;13.77;;;5.75;;
47930;SDS011;33697;51.520;9.950;2022-09-21T04:32:19;18.98;;;5.40;;
47930;SDS011;33697;51.520;9.950;2022-09-21T04:34:45;9.48;;;5.18;;
47930;SDS011;33697;51.520;9.950;2022-09-21T04:37:12;26.23;;;5.07;;
47930;SDS011;33697;51.520;9.950;2022-09-21T04:39:38;20.85;;;5.50;;
47930;SDS011;33697;51.520;9.950;2022-09-21T04:42:05;10.20;;;6.22;;
47930;SDS011;33697;51.520;9.950;2022-09-21T04:44:31;26.15;;;6.32;;
47930;SDS011;33697;51.520;9.950;2022-09-21T04:46:58;23.95;;;5.65;;
47930;SDS011;33697;51.520;9.950;2022-09-21T04:49:24;12.82;;;4.03;;
47930;SDS011;33697;51.520;9.950;2022-09-21T04:51:50;23.17;;;4.25;;
47930;SDS011;33697;51.520;9.950;2022-09-21T04:54:17;26.00;;;4.80;;
47930;SDS011;33697;51.520;9.950;2022-09-21T04:56:43;29.90;;;4.82;;
47930;SDS011;33697;51.520;9.950;2022-09-21T04:59:09;24.75;;;4.28;;
47930;SDS011;33697;51.520;9.950;2022-09-21T05:01:35;16.10;;;3.20;;
47930;SDS011;33697;51.520;9.950;2022-09-21T05:04:02;31.75;;;4.72;;
47930;SDS011;33697;51.520;9.950;2022-09-21T05:06:28;19.63;;;3.53;;
47930;SDS011;33697;51.520;9.950;2022-09-21T05:08:55;28.45;;;3.97;;
47930;SDS011;33697;51.520;9.950;2022-09-21T05:11:40;14.15;;;3.92;;
47930;SDS011;33697;51.520;9.950;2022-09-21T05:14:07;26.65;;;4.18;;
47930;SDS011;33697;51.520;9.950;2022-09-21T05:16:34;21.88;;;4.28;;
47930;SDS011;33697;51.520;9.950;2022-09-21T05:19:00;21.67;;;3.60;;
47930;SDS011;33697;51.520;9.950;2022-09-21T05:21:26;18.33;;;4.00;;
47930;SDS011;33697;51.520;9.950;2022-09-21T05:23:53;21.83;;;4.60;;
47930;SDS011;33697;51.520;9.950;2022-09-21T05:26:19;19.55;;;4.57;;
47930;SDS011;33697;51.520;9.950;2022-09-21T05:28:45;18.73;;;4.63;;
47930;SDS011;33697;51.520;9.950;2022-09-21T05:31:26;7.68;;;3.88;;
47930;SDS011;33697;51.520;9.950;2022-09-21T05:33:55;13.88;;;4.70;;
47930;SDS011;33697;51.520;9.950;2022-09-21T05:38:49;33.15;;;4.80;;
47930;SDS011;33697;51.520;9.950;2022-09-21T05:41:16;25.23;;;4.90;;
47930;SDS011;33697;51.520;9.950;2022-09-21T05:43:42;10.75;;;3.40;;
47930;SDS011;33697;51.520;9.950;2022-09-21T05:46:15;19.90;;;4.10;;
47930;SDS011;33697;51.520;9.950;2022-09-21T05:48:50;14.70;;;4.05;;
47930;SDS011;33697;51.520;9.950;2022-09-21T05:51:28;12.80;;;3.83;;
47930;SDS011;33697;51.520;9.950;2022-09-21T05:54:04;11.68;;;4.80;;
47930;SDS011;33697;51.520;9.950;2022-09-21T05:56:44;25.20;;;4.45;;
47930;SDS011;33697;51.520;9.950;2022-09-21T05:59:56;11.10;;;4.82;;
47930;SDS011;33697;51.520;9.950;2022-09-21T06:04:34;30.48;;;4.32;;
47930;SDS011;33697;51.520;9.950;2022-09-21T06:07:00;29.73;;;4.15;;
47930;SDS011;33697;51.520;9.950;2022-09-21T06:09:27;12.48;;;2.92;;
47930;SDS011;33697;51.520;9.950;2022-09-21T06:11:53;9.70;;;3.63;;
47930;SDS011;33697;51.520;9.950;2022-09-21T06:14:19;11.70;;;3.30;;
47930;SDS011;33697;51.520;9.950;2022-09-21T06:16:50;7.30;;;2.85;;
47930;SDS011;33697;51.520;9.950;2022-09-21T06:19:16;8.98;;;3.85;;
47930;SDS011;33697;51.520;9.950;2022-09-21T06:21:43;12.57;;;3.42;;
47930;SDS011;33697;51.520;9.950;2022-09-21T06:24:09;9.68;;;3.38;;
47930;SDS011;33697;51.520;9.950;2022-09-21T06:26:37;11.48;;;2.60;;
47930;SDS011;33697;51.520;9.950;2022-09-21T06:29:03;19.23;;;3.00;;
47930;SDS011;33697;51.520;9.950;2022-09-21T06:31:29;13.82;;;2.72;;
47930;SDS011;33697;51.520;9.950;2022-09-21T06:33:55;6.90;;;2.95;;
47930;SDS011;33697;51.520;9.950;2022-09-21T06:36:22;13.65;;;3.28;;
47930;SDS011;33697;51.520;9.950;2022-09-21T06:38:48;14.70;;;3.63;;
47930;SDS011;33697;51.520;9.950;2022-09-21T06:41:14;7.45;;;2.67;;
47930;SDS011;33697;51.520;9.950;2022-09-21T06:43:46;8.13;;;4.15;;
47930;SDS011;33697;51.520;9.950;2022-09-21T06:46:12;12.05;;;3.00;;
47930;SDS011;33697;51.520;9.950;2022-09-21T06:48:39;11.85;;;3.80;;
47930;SDS011;33697;51.520;9.950;2022-09-21T06:51:05;14.00;;;3.30;;
47930;SDS011;33697;51.520;9.950;2022-09-21T06:53:32;15.10;;;3.20;;
47930;SDS011;33697;51.520;9.950;2022-09-21T06:55:59;11.82;;;2.70;;
47930;SDS011;33697;51.520;9.950;2022-09-21T06:58:25;17.65;;;3.20;;
47930;SDS011;33697;51.520;9.950;2022-09-21T07:00:52;18.92;;;2.88;;
47930;SDS011;33697;51.520;9.950;2022-09-21T07:03:18;12.00;;;3.67;;
47930;SDS011;33697;51.520;9.950;2022-09-21T07:05:44;11.95;;;3.92;;
47930;SDS011;33697;51.520;9.950;2022-09-21T07:08:11;17.15;;;4.50;;
47930;SDS011;33697;51.520;9.950;2022-09-21T07:10:58;10.27;;;4.10;;
47930;SDS011;33697;51.520;9.950;2022-09-21T07:13:25;6.07;;;3.15;;
47930;SDS011;33697;51.520;9.950;2022-09-21T07:15:52;6.15;;;3.42;;
47930;SDS011;33697;51.520;9.950;2022-09-21T07:18:18;12.13;;;3.97;;
47930;SDS011;33697;51.520;9.950;2022-09-21T07:20:44;16.63;;;3.30;;
47930;SDS011;33697;51.520;9.950;2022-09-21T07:23:17;12.32;;;2.60;;
47930;SDS011;33697;51.520;9.950;2022-09-21T07:28:10;11.23;;;3.08;;
47930;SDS011;33697;51.520;9.950;2022-09-21T07:30:37;7.95;;;2.72;;
47930;SDS011;33697;51.520;9.950;2022-09-21T07:33:04;6.75;;;4.25;;
47930;SDS011;33697;51.520;9.950;2022-09-21T07:35:31;6.78;;;2.35;;
47930;SDS011;33697;51.520;9.950;2022-09-21T07:37:57;8.43;;;2.22;;
47930;SDS011;33697;51.520;9.950;2022-09-21T07:40:24;9.57;;;2.42;;
47930;SDS011;33697;51.520;9.950;2022-09-21T07:42:50;4.30;;;2.53;;
47930;SDS011;33697;51.520;9.950;2022-09-21T07:45:17;14.48;;;2.90;;
47930;SDS011;33697;51.520;9.950;2022-09-21T07:47:43;12.10;;;2.55;;
47930;SDS011;33697;51.520;9.950;2022-09-21T07:50:11;13.05;;;2.60;;
47930;SDS011;33697;51.520;9.950;2022-09-21T07:52:37;3.15;;;2.47;;
47930;SDS011;33697;51.520;9.950;2022-09-21T07:55:04;12.77;;;2.50;;
47930;SDS011;33697;51.520;9.950;2022-09-21T07:57:30;14.65;;;2.55;;
47930;SDS011;33697;51.520;9.950;2022-09-21T08:00:15;8.90;;;2.60;;
47930;SDS011;33697;51.520;9.950;2022-09-21T08:02:41;11.85;;;2.85;;
47930;SDS011;33697;51.520;9.950;2022-09-21T08:05:12;18.95;;;3.55;;
47930;SDS011;33697;51.520;9.950;2022-09-21T08:07:39;12.15;;;3.55;;
47930;SDS011;33697;51.520;9.950;2022-09-21T08:10:05;29.45;;;3.80;;
47930;SDS011;33697;51.520;9.950;2022-09-21T08:12:31;6.90;;;4.05;;
47930;SDS011;33697;51.520;9.950;2022-09-21T08:14:58;5.00;;;3.10;;
47930;SDS011;33697;51.520;9.950;2022-09-21T08:17:24;11.38;;;4.70;;
47930;SDS011;33697;51.520;9.950;2022-09-21T08:19:50;8.30;;;3.03;;
47930;SDS011;33697;51.520;9.950;2022-09-21T08:22:17;12.02;;;3.67;;
47930;SDS011;33697;51.520;9.950;2022-09-21T08:24:43;8.32;;;4.05;;
47930;SDS011;33697;51.520;9.950;2022-09-21T08:27:11;7.38;;;3.75;;
47930;SDS011;33697;51.520;9.950;2022-09-21T08:29:37;5.28;;;3.88;;
47930;SDS011;33697;51.520;9.950;2022-09-21T08:32:04;4.28;;;3.67;;
47930;SDS011;33697;51.520;9.950;2022-09-21T08:34:30;21.05;;;4.00;;
47930;SDS011;33697;51.520;9.950;2022-09-21T08:36:56;4.22;;;3.35;;
47930;SDS011;33697;51.520;9.950;2022-09-21T08:39:22;7.53;;;4.22;;
47930;SDS011;33697;51.520;9.950;2022-09-21T08:44:28;5.38;;;3.75;;
47930;SDS011;33697;51.520;9.950;2022-09-21T08:47:00;5.18;;;3.58;;
47930;SDS011;33697;51.520;9.950;2022-09-21T08:49:29;4.95;;;3.63;;
47930;SDS011;33697;51.520;9.950;2022-09-21T08:51:57;6.70;;;3.67;;
47930;SDS011;33697;51.520;9.950;2022-09-21T08:56:57;4.03;;;3.33;;
47930;SDS011;33697;51.520;9.950;2022-09-21T08:59:31;5.35;;;4.53;;
47930;SDS011;33697;51.520;9.950;2022-09-21T09:04:51;5.38;;;4.75;;
47930;SDS011;33697;51.520;9.950;2022-09-21T09:12:44;12.82;;;5.05;;
47930;SDS011;33697;51.520;9.950;2022-09-21T09:15:16;5.80;;;4.13;;
47930;SDS011;33697;51.520;9.950;2022-09-21T09:17:49;12.90;;;4.20;;
47930;SDS011;33697;51.520;9.950;2022-09-21T09:22:47;5.40;;;4.47;;
47930;SDS011;33697;51.520;9.950;2022-09-21T09:25:16;5.00;;;4.20;;
47930;SDS011;33697;51.520;9.950;2022-09-21T09:27:44;6.38;;;3.97;;
47930;SDS011;33697;51.520;9.950;2022-09-21T09:30:18;6.72;;;4.82;;
47930;SDS011;33697;51.520;9.950;2022-09-21T09:32:56;6.78;;;5.15;;
47930;SDS011;33697;51.520;9.950;2022-09-21T09:35:24;4.35;;;3.90;;
47930;SDS011;33697;51.520;9.950;2022-09-21T09:37:53;6.57;;;4.97;;
47930;SDS011;33697;51.520;9.950;2022-09-21T09:40:23;4.90;;;3.78;;
47930;SDS011;33697;51.520;9.950;2022-09-21T09:42:58;5.43;;;3.65;;
47930;SDS011;33697;51.520;9.950;2022-09-21T09:45:38;5.97;;;5.10;;
47930;SDS011;33697;51.520;9.950;2022-09-21T09:48:22;5.50;;;4.78;;
47930;SDS011;33697;51.520;9.950;2022-09-21T09:50:52;6.47;;;5.15;;
47930;SDS011;33697;51.520;9.950;2022-09-21T09:53:19;5.22;;;4.72;;
47930;SDS011;33697;51.520;9.950;2022-09-21T09:55:47;6.60;;;5.07;;
47930;SDS011;33697;51.520;9.950;2022-09-21T09:58:18;7.15;;;5.05;;
47930;SDS011;33697;51.520;9.950;2022-09-21T10:00:46;5.78;;;5.03;;
47930;SDS011;33697;51.520;9.950;2022-09-21T10:03:15;7.82;;;6.18;;
47930;SDS011;33697;51.520;9.950;2022-09-21T10:05:42;10.13;;;4.93;;
47930;SDS011;33697;51.520;9.950;2022-09-21T10:10:53;9.95;;;5.03;;
47930;SDS011;33697;51.520;9.950;2022-09-21T10:13:27;8.43;;;5.05;;
47930;SDS011;33697;51.520;9.950;2022-09-21T10:15:55;6.32;;;4.78;;
47930;SDS011;33697;51.520;9.950;2022-09-21T10:20:56;7.28;;;5.63;;
47930;SDS011;33697;51.520;9.950;2022-09-21T10:23:22;9.75;;;4.85;;
47930;SDS011;33697;51.520;9.950;2022-09-21T10:28:24;8.00;;;4.80;;
47930;SDS011;33697;51.520;9.950;2022-09-21T10:31:06;5.32;;;4.25;;
47930;SDS011;33697;51.520;9.950;2022-09-21T10:33:33;8.15;;;5.68;;
47930;SDS011;33697;51.520;9.950;2022-09-21T10:36:00;8.70;;;5.43;;
47930;SDS011;33697;51.520;9.950;2022-09-21T10:38:26;11.75;;;5.65;;
47930;SDS011;33697;51.520;9.950;2022-09-21T10:40:53;7.20;;;5.25;;
47930;SDS011;33697;51.520;9.950;2022-09-21T10:43:39;8.88;;;5.45;;
47930;SDS011;33697;51.520;9.950;2022-09-21T10:46:09;14.27;;;5.38;;
47930;SDS011;33697;51.520;9.950;2022-09-21T10:48:36;9.48;;;5.28;;
47930;SDS011;33697;51.520;9.950;2022-09-21T10:51:02;10.38;;;5.65;;
47930;SDS011;33697;51.520;9.950;2022-09-21T10:53:30;9.05;;;5.55;;
47930;SDS011;33697;51.520;9.950;2022-09-21T10:56:07;8.00;;;4.07;;
47930;SDS011;33697;51.520;9.950;2022-09-21T11:01:28;9.25;;;4.68;;
47930;SDS011;33697;51.520;9.950;2022-09-21T11:03:57;6.07;;;3.75;;
47930;SDS011;33697;51.520;9.950;2022-09-21T11:09:07;10.18;;;3.60;;
47930;SDS011;33697;51.520;9.950;2022-09-21T11:17:08;9.50;;;2.75;;
47930;SDS011;33697;51.520;9.950;2022-09-21T11:22:39;4.78;;;2.50;;
47930;SDS011;33697;51.520;9.950;2022-09-21T11:27:39;6.03;;;1.15;;
47930;SDS011;33697;51.520;9.950;2022-09-21T11:30:10;4.38;;;1.63;;
47930;SDS011;33697;51.520;9.950;2022-09-21T11:35:30;4.40;;;0.90;;
47930;SDS011;33697;51.520;9.950;2022-09-21T11:40:53;8.82;;;1.98;;
47930;SDS011;33697;51.520;9.950;2022-09-21T11:46:05;6.05;;;0.90;;
47930;SDS011;33697;51.520;9.950;2022-09-21T11:48:34;5.50;;;1.08;;
47930;SDS011;33697;51.520;9.950;2022-09-21T11:58:36;5.07;;;0.90;;
47930;SDS011;33697;51.520;9.950;2022-09-21T12:01:12;8.23;;;0.70;;
47930;SDS011;33697;51.520;9.950;2022-09-21T12:03:48;4.30;;;0.40;;
47930;SDS011;33697;51.520;9.950;2022-09-21T12:06:18;4.53;;;1.33;;
47930;SDS011;33697;51.520;9.950;2022-09-21T12:14:01;3.95;;;0.30;;
47930;SDS011;33697;51.520;9.950;2022-09-21T12:19:08;4.20;;;0.90;;
47930;SDS011;33697;51.520;9.950;2022-09-21T12:21:38;4.18;;;0.50;;
47930;SDS011;33697;51.520;9.950;2022-09-21T12:24:16;2.80;;;0.30;;
47930;SDS011;33697;51.520;9.950;2022-09-21T12:26:45;5.57;;;0.70;;
47930;SDS011;33697;51.520;9.950;2022-09-21T12:34:10;3.90;;;0.45;;
47930;SDS011;33697;51.520;9.950;2022-09-21T12:36:40;3.40;;;0.20;;
47930;SDS011;33697;51.520;9.950;2022-09-21T12:39:21;2.90;;;0.65;;
47930;SDS011;33697;51.520;9.950;2022-09-21T12:44:19;6.33;;;0.30;;
47930;SDS011;33697;51.520;9.950;2022-09-21T12:46:55;4.85;;;0.40;;
47930;SDS011;33697;51.520;9.950;2022-09-21T12:49:41;3.42;;;0.20;;
47930;SDS011;33697;51.520;9.950;2022-09-21T12:52:08;2.00;;;0.50;;
47930;SDS011;33697;51.520;9.950;2022-09-21T12:54:54;6.22;;;1.60;;
47930;SDS011;33697;51.520;9.950;2022-09-21T12:57:25;5.28;;;0.40;;
47930;SDS011;33697;51.520;9.950;2022-09-21T13:00:20;4.45;;;0.30;;
47930;SDS011;33697;51.520;9.950;2022-09-21T13:02:52;4.47;;;0.40;;
47930;SDS011;33697;51.520;9.950;2022-09-21T13:05:22;2.83;;;0.82;;
47930;SDS011;33697;51.520;9.950;2022-09-21T13:07:58;5.30;;;0.55;;
47930;SDS011;33697;51.520;9.950;2022-09-21T13:13:18;1.98;;;0.10;;
47930;SDS011;33697;51.520;9.950;2022-09-21T13:15:47;3.33;;;0.10;;
47930;SDS011;33697;51.520;9.950;2022-09-21T13:20:50;2.58;;;0.35;;
47930;SDS011;33697;51.520;9.950;2022-09-21T13:23:25;4.90;;;0.20;;
47930;SDS011;33697;51.520;9.950;2022-09-21T13:25:59;3.95;;;0.32;;
47930;SDS011;33697;51.520;9.950;2022-09-21T13:28:38;8.40;;;1.08;;
47930;SDS011;33697;51.520;9.950;2022-09-21T13:34:14;2.53;;;0.10;;
47930;SDS011;33697;51.520;9.950;2022-09-21T13:41:35;6.75;;;0.35;;
47930;SDS011;33697;51.520;9.950;2022-09-21T13:46:51;1.50;;;0.30;;
47930;SDS011;33697;51.520;9.950;2022-09-21T13:49:30;2.63;;;1.15;;
47930;SDS011;33697;51.520;9.950;2022-09-21T13:57:36;1.17;;;0.30;;
47930;SDS011;33697;51.520;9.950;2022-09-21T13:59:42;5.43;;;0.55;;
47930;SDS011;33697;51.520;9.950;2022-09-21T14:05:40;2.40;;;0.28;;
47930;SDS011;33697;51.520;9.950;2022-09-21T14:10:47;2.78;;;0.32;;
47930;SDS011;33697;51.520;9.950;2022-09-21T14:14:01;5.82;;;0.55;;
47930;SDS011;33697;51.520;9.950;2022-09-21T14:18:54;2.05;;;0.30;;
47930;SDS011;33697;51.520;9.950;2022-09-21T14:21:21;3.00;;;0.32;;
47930;SDS011;33697;51.520;9.950;2022-09-21T14:29:40;2.95;;;0.30;;
47930;SDS011;33697;51.520;9.950;2022-09-21T14:32:12;6.07;;;0.50;;
47930;SDS011;33697;51.520;9.950;2022-09-21T14:34:39;2.92;;;0.20;;
47930;SDS011;33697;51.520;9.950;2022-09-21T14:37:11;2.17;;;0.20;;
47930;SDS011;33697;51.520;9.950;2022-09-21T14:39:39;3.17;;;0.10;;
47930;SDS011;33697;51.520;9.950;2022-09-21T14:42:17;2.45;;;0.28;;
47930;SDS011;33697;51.520;9.950;2022-09-21T14:44:45;3.42;;;0.10;;
47930;SDS011;33697;51.520;9.950;2022-09-21T14:47:18;2.67;;;0.70;;
47930;SDS011;33697;51.520;9.950;2022-09-21T14:57:44;4.93;;;0.40;;
47930;SDS011;33697;51.520;9.950;2022-09-21T15:02:40;7.30;;;0.55;;
47930;SDS011;33697;51.520;9.950;2022-09-21T15:10:52;2.95;;;0.47;;
47930;SDS011;33697;51.520;9.950;2022-09-21T15:13:26;4.30;;;0.20;;
47930;SDS011;33697;51.520;9.950;2022-09-21T15:16:07;5.82;;;0.35;;
47930;SDS011;33697;51.520;9.950;2022-09-21T15:18:40;2.72;;;0.17;;
47930;SDS011;33697;51.520;9.950;2022-09-21T15:21:20;2.47;;;0.20;;
47930;SDS011;33697;51.520;9.950;2022-09-21T15:23:47;1.55;;;0.30;;
47930;SDS011;33697;51.520;9.950;2022-09-21T15:26:21;0.95;;;0.20;;
47930;SDS011;33697;51.520;9.950;2022-09-21T15:28:51;4.25;;;0.17;;
47930;SDS011;33697;51.520;9.950;2022-09-21T15:31:36;1.85;;;0.10;;
47930;SDS011;33697;51.520;9.950;2022-09-21T15:34:04;3.77;;;0.10;;
47930;SDS011;33697;51.520;9.950;2022-09-21T15:36:30;2.88;;;0.20;;
47930;SDS011;33697;51.520;9.950;2022-09-21T15:38:59;2.85;;;0.32;;
47930;SDS011;33697;51.520;9.950;2022-09-21T15:41:42;3.55;;;0.82;;
47930;SDS011;33697;51.520;9.950;2022-09-21T15:46:36;1.48;;;0.03;;
47930;SDS011;33697;51.520;9.950;2022-09-21T15:49:02;2.92;;;0.17;;
47930;SDS011;33697;51.520;9.950;2022-09-21T15:51:30;2.63;;;0.35;;
47930;SDS011;33697;51.520;9.950;2022-09-21T15:56:33;1.63;;;0.10;;
47930;SDS011;33697;51.520;9.950;2022-09-21T15:59:05;1.90;;;0.10;;
47930;SDS011;33697;51.520;9.950;2022-09-21T16:01:38;3.40;;;0.00;;
47930;SDS011;33697;51.520;9.950;2022-09-21T16:04:10;3.13;;;0.17;;
47930;SDS011;33697;51.520;9.950;2022-09-21T16:06:38;2.72;;;0.08;;
47930;SDS011;33697;51.520;9.950;2022-09-21T16:11:51;3.05;;;0.10;;
47930;SDS011;33697;51.520;9.950;2022-09-21T16:14:18;2.25;;;0.10;;
47930;SDS011;33697;51.520;9.950;2022-09-21T16:17:04;2.00;;;0.13;;
47930;SDS011;33697;51.520;9.950;2022-09-21T16:19:41;3.63;;;0.10;;
47930;SDS011;33697;51.520;9.950;2022-09-21T16:22:14;5.40;;;0.63;;
47930;SDS011;33697;51.520;9.950;2022-09-21T16:24:49;2.40;;;0.35;;
47930;SDS011;33697;51.520;9.950;2022-09-21T16:27:24;2.58;;;0.10;;
47930;SDS011;33697;51.520;9.950;2022-09-21T16:29:51;0.40;;;0.08;;
47930;SDS011;33697;51.520;9.950;2022-09-21T16:34:44;1.70;;;0.22;;
47930;SDS011;33697;51.520;9.950;2022-09-21T16:39:50;6.72;;;0.28;;
47930;SDS011;33697;51.520;9.950;2022-09-21T16:42:16;2.17;;;1.40;;
47930;SDS011;33697;51.520;9.950;2022-09-21T16:44:43;3.00;;;0.60;;
47930;SDS011;33697;51.520;9.950;2022-09-21T16:47:15;2.10;;;0.10;;
47930;SDS011;33697;51.520;9.950;2022-09-21T16:49:42;6.70;;;0.77;;
47930;SDS011;33697;51.520;9.950;2022-09-21T16:52:09;9.77;;;0.55;;
47930;SDS011;33697;51.520;9.950;2022-09-21T16:54:35;1.48;;;0.20;;
47930;SDS011;33697;51.520;9.950;2022-09-21T16:57:03;2.83;;;0.20;;
47930;SDS011;33697;51.520;9.950;2022-09-21T16:59:30;3.53;;;0.32;;
47930;SDS011;33697;51.520;9.950;2022-09-21T17:01:58;11.90;;;3.40;;
47930;SDS011;33697;51.520;9.950;2022-09-21T17:04:26;1.60;;;0.20;;
47930;SDS011;33697;51.520;9.950;2022-09-21T17:06:53;3.97;;;0.68;;
47930;SDS011;33697;51.520;9.950;2022-09-21T17:11:54;3.40;;;0.43;;
47930;SDS011;33697;51.520;9.950;2022-09-21T17:14:24;1.30;;;0.38;;
47930;SDS011;33697;51.520;9.950;2022-09-21T17:16:51;2.33;;;0.30;;
47930;SDS011;33697;51.520;9.950;2022-09-21T17:19:18;1.48;;;0.22;;
47930;SDS011;33697;51.520;9.950;2022-09-21T17:21:45;5.22;;;0.63;;
47930;SDS011;33697;51.520;9.950;2022-09-21T17:24:12;2.30;;;0.43;;
47930;SDS011;33697;51.520;9.950;2022-09-21T17:26:58;4.03;;;0.60;;
47930;SDS011;33697;51.520;9.950;2022-09-21T17:29:25;3.50;;;0.47;;
47930;SDS011;33697;51.520;9.950;2022-09-21T17:31:53;3.35;;;0.28;;
47930;SDS011;33697;51.520;9.950;2022-09-21T17:34:22;10.27;;;0.50;;
47930;SDS011;33697;51.520;9.950;2022-09-21T17:36:49;6.10;;;0.95;;
47930;SDS011;33697;51.520;9.950;2022-09-21T17:39:16;6.72;;;0.65;;
47930;SDS011;33697;51.520;9.950;2022-09-21T17:49:25;5.80;;;1.13;;